Time;durP1;ratioP1;P1;durP2;ratioP2;P2;SDS_P1;SDS_P2;PMS_P1;PMS_P2;Temp;Humidity;BMP_temperature;BMP_pressure;BME280_temperature;BME280_humidity;BME280_pressure;Samples;Min_cycle;Max_cycle;Signal;HPM_P1;HPM_P2
2022/01/22 00:00:56;;;;;;;;;;;;;;;;;;5074100;28;1226;-74
2022/01/22 00:03:22;;;;;;;;;;;;;;;;;;5092840;28;1180;-73
2022/01/22 00:05:47;;;;;;;;;;;;;;;;;;5076165;28;1257;-73
2022/01/22 00:08:12;;;;;;;;;;;;;;;;;;5058721;28;1208;-73
2022/01/22 00:10:41;;;;;;;;;;;;;;;;;;5092805;28;918;-74
2022/01/22 00:14:23;;;;;;;;;;;;;;;;;;5059477;28;1901;-73
2022/01/22 00:15:53;;;;;;;;;;;;;;;;;;5093479;28;829;-74
2022/01/22 00:18:18;;;;;;;;;;;;;;;;;;5074895;28;1274;-74
2022/01/22 00:20:44;;;;;;;;;;;;;;;;;;5075176;28;1202;-73
2022/01/22 00:23:09;;;;;;;;;;;;;;;;;;5058762;28;1386;-74
2022/01/22 00:25:34;;;;;;;;;;;;;;;;;;5074989;28;1021;-73
2022/01/22 00:28:02;;;;;;;;;;;;;;;;;;5093358;28;745;-73
2022/01/22 00:30:28;;;;;;;;;;;;;;;;;;5074954;28;1175;-73
2022/01/22 00:32:54;;;;;;;;;;;;;;;;;;5058404;28;1899;-73
2022/01/22 00:35:21;;;;;;;;;;;;;;;;;;5075317;28;1518;-73
2022/01/22 00:37:47;;;;;;;;;;;;;;;;;;5074599;28;1167;-73
2022/01/22 00:40:14;;;;;;;;;;;;;;;;;;5093208;28;794;-73
2022/01/22 00:42:39;;;;;;;;;;;;;;;;;;5091472;28;856;-73
2022/01/22 00:45:05;;;;;;;;;;;;;;;;;;5093618;28;900;-73
2022/01/22 00:47:30;;;;;;;;;;;;;;;;;;5074113;28;959;-74
2022/01/22 00:49:56;;;;;;;;;;;;;;;;;;5075048;28;1157;-73
2022/01/22 00:52:21;;;;;;;;;;;;;;;;;;5092776;28;1963;-73
2022/01/22 00:54:46;;;;;;;;;;;;;;;;;;5092265;28;959;-73
2022/01/22 00:57:11;;;;;;;;;;;;;;;;;;5074343;28;1234;-73
2022/01/22 00:59:37;;;;;;;;;;;;;;;;;;5073770;28;828;-73
2022/01/22 01:02:03;;;;;;;;;;;;;;;;;;5074011;28;1139;-73
2022/01/22 01:04:32;;;;;;;;;;;;;;;;;;5092345;28;888;-73
2022/01/22 01:06:58;;;;;;;;;;;;;;;;;;5058038;28;1175;-74
2022/01/22 01:09:24;;;;;;;;;;;;;;;;;;5058012;28;1167;-82
2022/01/22 01:11:54;;;;;;;;;;;;;;;;;;5057926;28;1910;-82
2022/01/22 01:14:27;;;;;;;;;;;;;;;;;;5092675;28;923;-82
2022/01/22 01:17:09;;;;;;;;;;;;;;;;;;5075676;28;922;-82
2022/01/22 01:33:32;;;;;;;;;;;;;;;;;;5092506;28;1918;-82
2022/01/22 01:35:57;;;;;;;;;;;;;;;;;;5074704;28;1156;-82
2022/01/22 01:38:23;;;;;;;;;;;;;;;;;;5092293;28;854;-82
2022/01/22 01:41:00;;;;;;;;;;;;;;;;;;5057112;28;1398;-82
2022/01/22 01:43:31;;;;;;;;;;;;;;;;;;5091643;28;1063;-82
2022/01/22 01:45:56;;;;;;;;;;;;;;;;;;5087901;28;2889;-82
2022/01/22 01:48:23;;;;;;;;;;;;;;;;;;5071654;28;1210;-82
2022/01/22 01:50:49;;;;;;;;;;;;;;;;;;5053409;28;1122;-73
2022/01/22 01:53:41;;;;;;;;;;;;;;;;;;5053211;28;1914;-73
2022/01/22 01:56:03;;;;;;;;;;;;;;;;;;5070459;28;1034;-73
2022/01/22 01:58:29;;;;;;;;;;;;;;;;;;5053047;28;1477;-73
2022/01/22 02:00:54;;;;;;;;;;;;;;;;;;5071227;28;1023;-73
2022/01/22 02:03:20;;;;;;;;;;;;;;;;;;5052988;28;1411;-73
2022/01/22 02:05:45;;;;;;;;;;;;;;;;;;5052640;28;1349;-73
2022/01/22 02:08:13;;;;;;;;;;;;;;;;;;5071161;28;892;-73
2022/01/22 02:10:44;;;;;;;;;;;;;;;;;;5070445;28;932;-73
2022/01/22 02:24:34;;;;;;;;;;;;;;;;;;5073117;28;1305;-73
2022/01/22 02:26:59;;;;;;;;;;;;;;;;;;5090583;28;943;-73
2022/01/22 02:29:25;;;;;;;;;;;;;;;;;;5072336;28;1164;-73
2022/01/22 02:32:11;;;;;;;;;;;;;;;;;;5072652;28;1977;-73
2022/01/22 02:34:44;;;;;;;;;;;;;;;;;;5090764;28;1176;-73
2022/01/22 02:37:14;;;;;;;;;;;;;;;;;;5091096;28;840;-73
2022/01/22 02:42:28;;;;;;;;;;;;;;;;;;5091059;28;671;-73
2022/01/22 02:44:54;;;;;;;;;;;;;;;;;;5090860;28;872;-73
2022/01/22 02:47:20;;;;;;;;;;;;;;;;;;5091457;28;892;-73
2022/01/22 02:49:45;;;;;;;;;;;;;;;;;;5091304;28;860;-73
2022/01/22 02:52:11;;;;;;;;;;;;;;;;;;5091001;28;1890;-73
2022/01/22 02:54:37;;;;;;;;;;;;;;;;;;5072973;28;1136;-73
2022/01/22 02:57:03;;;;;;;;;;;;;;;;;;5091297;28;777;-73
2022/01/22 02:59:28;;;;;;;;;;;;;;;;;;5073441;28;1175;-73
2022/01/22 03:01:54;;;;;;;;;;;;;;;;;;5095135;28;758;-73
2022/01/22 03:04:19;;;;;;;;;;;;;;;;;;5077072;28;1571;-73
2022/01/22 03:06:46;;;;;;;;;;;;;;;;;;5078888;28;1251;-73
2022/01/22 03:09:14;;;;;;;;;;;;;;;;;;5099343;28;856;-73
2022/01/22 03:12:15;;;;;;;;;;;;;;;;;;5098784;28;1898;-73
2022/01/22 03:17:31;;;;;;;;;;;;;;;;;;5098706;28;693;-72
2022/01/22 03:27:38;;;;;;;;;;;;;;;;;;5098177;28;755;-73
2022/01/22 03:30:04;;;;;;;;;;;;;;;;;;5098350;28;774;-73
2022/01/22 03:32:37;;;;;;;;;;;;;;;;;;5098075;28;1902;-73
2022/01/22 03:35:12;;;;;;;;;;;;;;;;;;5095867;28;2281;-73
2022/01/22 03:37:38;;;;;;;;;;;;;;;;;;5097775;28;876;-73
2022/01/22 03:40:04;;;;;;;;;;;;;;;;;;5097936;28;781;-73
2022/01/22 03:42:29;;;;;;;;;;;;;;;;;;5097665;28;943;-72
2022/01/22 03:44:55;;;;;;;;;;;;;;;;;;5094793;28;1000;-73
2022/01/22 03:47:20;;;;;;;;;;;;;;;;;;5096083;28;955;-82
2022/01/22 03:49:45;;;;;;;;;;;;;;;;;;5097129;28;1051;-82
2022/01/22 03:52:11;;;;;;;;;;;;;;;;;;5096941;28;1890;-82
2022/01/22 03:54:36;;;;;;;;;;;;;;;;;;5078198;28;1209;-82
2022/01/22 03:57:01;;;;;;;;;;;;;;;;;;5096943;28;841;-82
2022/01/22 03:59:29;;;;;;;;;;;;;;;;;;5096077;28;825;-82
2022/01/22 04:04:33;;;;;;;;;;;;;;;;;;5096951;28;745;-82
2022/01/22 04:09:41;;;;;;;;;;;;;;;;;;5101138;28;864;-81
2022/01/22 04:12:06;;;;;;;;;;;;;;;;;;5096380;28;1902;-82
2022/01/22 04:14:34;;;;;;;;;;;;;;;;;;5096002;28;900;-82
2022/01/22 04:24:50;;;;;;;;;;;;;;;;;;5060767;28;1543;-81
2022/01/22 04:24:50;;;;;;;;;;;;;;;;;;5095429;28;1365;-81
2022/01/22 04:25:26;;;;;;;;;;;;;;;;;;5093769;28;894;-82
2022/01/22 04:27:53;;;;;;;;;;;;;;;;;;5094264;28;888;-82
2022/01/22 04:30:19;;;;;;;;;;;;;;;;;;5075321;28;1525;-82
2022/01/22 04:32:44;;;;;;;;;;;;;;;;;;5093340;28;1902;-82
2022/01/22 04:35:09;;;;;;;;;;;;;;;;;;5093665;28;947;-82
2022/01/22 04:37:35;;;;;;;;;;;;;;;;;;5094281;28;849;-82
2022/01/22 04:40:00;;;;;;;;;;;;;;;;;;5093993;28;837;-73
2022/01/22 04:42:28;;;;;;;;;;;;;;;;;;5074469;28;781;-73
2022/01/22 04:45:00;;;;;;;;;;;;;;;;;;5093179;28;813;-73
2022/01/22 04:55:44;;;;;;;;;;;;;;;;;;5069255;28;1129;-82
2022/01/22 04:58:10;;;;;;;;;;;;;;;;;;5092994;28;884;-81
2022/01/22 05:00:36;;;;;;;;;;;;;;;;;;5075068;28;1058;-81
2022/01/22 05:03:02;;;;;;;;;;;;;;;;;;5093423;28;848;-81
2022/01/22 05:05:28;;;;;;;;;;;;;;;;;;5092993;28;947;-82
2022/01/22 05:07:54;;;;;;;;;;;;;;;;;;5093206;28;964;-82
2022/01/22 05:10:19;;;;;;;;;;;;;;;;;;5074569;28;1201;-82
2022/01/22 05:12:44;;;;;;;;;;;;;;;;;;5092581;28;1954;-81
2022/01/22 05:15:09;;;;;;;;;;;;;;;;;;5092732;28;824;-81
2022/01/22 05:17:38;;;;;;;;;;;;;;;;;;5092468;28;912;-81
2022/01/22 05:20:10;;;;;;;;;;;;;;;;;;5092822;28;930;-81
2022/01/22 05:25:41;;;;;;;;;;;;;;;;;;5092875;28;937;-82
2022/01/22 05:31:08;;;;;;;;;;;;;;;;;;5068630;28;1659;-81
2022/01/22 05:38:57;;;;;;;;;;;;;;;;;;5092984;28;695;-81
2022/01/22 05:41:22;;;;;;;;;;;;;;;;;;5092705;28;817;-81
2022/01/22 05:43:47;;;;;;;;;;;;;;;;;;5092681;28;891;-81
2022/01/22 05:46:13;;;;;;;;;;;;;;;;;;5074172;28;1055;-81
2022/01/22 05:48:38;;;;;;;;;;;;;;;;;;5092807;28;825;-81
2022/01/22 05:51:06;;;;;;;;;;;;;;;;;;5092315;28;987;-82
2022/01/22 05:53:53;;;;;;;;;;;;;;;;;;5092292;28;1906;-81
2022/01/22 06:01:44;;;;;;;;;;;;;;;;;;5091531;28;690;-73
2022/01/22 06:04:09;;;;;;;;;;;;;;;;;;5091937;28;892;-73
2022/01/22 06:06:35;;;;;;;;;;;;;;;;;;5091748;28;856;-73
2022/01/22 06:09:03;;;;;;;;;;;;;;;;;;5091429;28;966;-72
2022/01/22 06:11:29;;;;;;;;;;;;;;;;;;5056060;28;1902;-73
2022/01/22 06:13:55;;;;;;;;;;;;;;;;;;5091251;28;900;-73
2022/01/22 06:16:21;;;;;;;;;;;;;;;;;;5073187;28;1167;-73
2022/01/22 06:18:47;;;;;;;;;;;;;;;;;;5091011;28;813;-72
2022/01/22 06:21:12;;;;;;;;;;;;;;;;;;5073306;28;936;-72
2022/01/22 06:23:39;;;;;;;;;;;;;;;;;;5090723;28;1215;-74
2022/01/22 06:26:05;;;;;;;;;;;;;;;;;;5073730;28;1579;-71
2022/01/22 06:28:31;;;;;;;;;;;;;;;;;;5090774;28;877;-75
2022/01/22 06:30:57;;;;;;;;;;;;;;;;;;5091890;28;966;-72
2022/01/22 06:33:22;;;;;;;;;;;;;;;;;;5073381;28;1965;-74
2022/01/22 06:35:48;;;;;;;;;;;;;;;;;;5091812;28;954;-74
2022/01/22 06:38:13;;;;;;;;;;;;;;;;;;5091317;28;852;-74
2022/01/22 06:43:04;;;;;;;;;;;;;;;;;;5095757;28;872;-74
2022/01/22 06:45:30;;;;;;;;;;;;;;;;;;5095093;28;880;-74
2022/01/22 06:47:55;;;;;;;;;;;;;;;;;;5095527;28;935;-74
2022/01/22 06:50:21;;;;;;;;;;;;;;;;;;5095373;28;986;-74
2022/01/22 06:52:47;;;;;;;;;;;;;;;;;;5077265;28;1906;-71
2022/01/22 06:55:15;;;;;;;;;;;;;;;;;;5095159;28;809;-74
2022/01/22 06:57:40;;;;;;;;;;;;;;;;;;5077134;28;868;-74
2022/01/22 07:00:06;;;;;;;;;;;;;;;;;;5095184;28;877;-74
2022/01/22 07:02:32;;;;;;;;;;;;;;;;;;5094931;28;833;-73
2022/01/22 07:04:57;;;;;;;;;;;;;;;;;;5095092;28;1321;-82
2022/01/22 07:07:22;;;;;;;;;;;;;;;;;;5094783;28;1168;-82
2022/01/22 07:09:47;;;;;;;;;;;;;;;;;;5076912;28;1132;-82
2022/01/22 07:12:13;;;;;;;;;;;;;;;;;;5076913;28;2890;-82
2022/01/22 07:14:39;;;;;;;;;;;;;;;;;;5096291;28;892;-82
2022/01/22 07:17:05;;;;;;;;;;;;;;;;;;5096246;28;860;-81
2022/01/22 07:19:37;;;;;;;;;;;;;;;;;;5076922;28;1295;-80
2022/01/22 07:22:08;;;;;;;;;;;;;;;;;;5095823;28;852;-80
2022/01/22 07:24:37;;;;;;;;;;;;;;;;;;5077305;28;1223;-80
2022/01/22 07:27:03;;;;;;;;;;;;;;;;;;5077879;28;1089;-80
2022/01/22 07:29:28;;;;;;;;;;;;;;;;;;5077143;28;1270;-80
2022/01/22 07:31:54;;;;;;;;;;;;;;;;;;5077344;28;1968;-80
2022/01/22 07:34:19;;;;;;;;;;;;;;;;;;5077138;28;845;-80
2022/01/22 07:36:44;;;;;;;;;;;;;;;;;;5095628;28;891;-80
2022/01/22 07:39:09;;;;;;;;;;;;;;;;;;5095404;28;1059;-81
2022/01/22 07:41:36;;;;;;;;;;;;;;;;;;5077390;28;933;-80
2022/01/22 07:44:01;;;;;;;;;;;;;;;;;;5095132;28;1191;-80
2022/01/22 07:46:27;;;;;;;;;;;;;;;;;;5095010;28;888;-80
2022/01/22 07:48:53;;;;;;;;;;;;;;;;;;5076459;28;1275;-75
2022/01/22 07:51:18;;;;;;;;;;;;;;;;;;5075962;28;1356;-73
2022/01/22 07:53:45;;;;;;;;;;;;;;;;;;5093943;28;1906;-73
2022/01/22 07:56:11;;;;;;;;;;;;;;;;;;5094523;28;963;-73
2022/01/22 07:58:36;;;;;;;;;;;;;;;;;;5093757;28;813;-73
2022/01/22 08:01:02;;;;;;;;;;;;;;;;;;5094385;28;991;-74
2022/01/22 08:03:28;;;;;;;;;;;;;;;;;;5093859;28;958;-72
2022/01/22 08:05:54;;;;;;;;;;;;;;;;;;5094680;28;770;-73
2022/01/22 08:08:19;;;;;;;;;;;;;;;;;;5093889;28;967;-74
2022/01/22 08:10:44;;;;;;;;;;;;;;;;;;5075868;28;1002;-73
2022/01/22 08:13:10;;;;;;;;;;;;;;;;;;5093801;28;1898;-73
2022/01/22 08:15:36;;;;;;;;;;;;;;;;;;5094186;28;1089;-73
2022/01/22 08:18:03;;;;;;;;;;;;;;;;;;5094507;28;801;-74
2022/01/22 08:20:28;;;;;;;;;;;;;;;;;;5093890;28;1073;-74
2022/01/22 08:22:54;;;;;;;;;;;;;;;;;;5094566;28;892;-74
2022/01/22 08:25:19;;;;;;;;;;;;;;;;;;5093870;28;1396;-74
2022/01/22 08:30:29;;;;;;;;;;;;;;;;;;5093696;28;665;-73
2022/01/22 08:35:54;;;;;;;;;;;;;;;;;;5093969;28;684;-73
2022/01/22 08:38:26;;;;;;;;;;;;;;;;;;5075355;28;1383;-74
2022/01/22 08:40:51;;;;;;;;;;;;;;;;;;5093455;28;856;-74
2022/01/22 08:43:17;;;;;;;;;;;;;;;;;;5093739;28;832;-73
2022/01/22 08:45:43;;;;;;;;;;;;;;;;;;5093191;28;844;-73
2022/01/22 08:48:08;;;;;;;;;;;;;;;;;;5093481;28;1021;-74
2022/01/22 08:50:34;;;;;;;;;;;;;;;;;;5075115;28;1250;-73
2022/01/22 08:53:01;;;;;;;;;;;;;;;;;;5093817;28;1961;-80
2022/01/22 08:55:26;;;;;;;;;;;;;;;;;;5093651;28;892;-80
2022/01/22 08:57:51;;;;;;;;;;;;;;;;;;5075825;28;875;-81
2022/01/22 09:00:18;;;;;;;;;;;;;;;;;;5092636;28;3000;-81
2022/01/22 09:02:45;;;;;;;;;;;;;;;;;;5093464;28;829;-81
2022/01/22 09:05:10;;;;;;;;;;;;;;;;;;5058598;28;1383;-80
2022/01/22 09:07:35;;;;;;;;;;;;;;;;;;5075126;28;1279;-81
2022/01/22 09:10:00;;;;;;;;;;;;;;;;;;5093547;28;793;-81
2022/01/22 09:12:27;;;;;;;;;;;;;;;;;;5093367;28;1902;-81
2022/01/22 09:14:52;;;;;;;;;;;;;;;;;;5058669;28;1278;-81
2022/01/22 09:17:18;;;;;;;;;;;;;;;;;;5093525;28;855;-84
2022/01/22 09:19:46;;;;;;;;;;;;;;;;;;5074674;28;1262;-82
2022/01/22 09:22:12;;;;;;;;;;;;;;;;;;5074018;28;1281;-83
2022/01/22 09:24:37;;;;;;;;;;;;;;;;;;5074339;28;1288;-82
2022/01/22 09:27:05;;;;;;;;;;;;;;;;;;5092825;28;1042;-82
2022/01/22 09:29:30;;;;;;;;;;;;;;;;;;5093247;28;864;-81
2022/01/22 09:31:55;;;;;;;;;;;;;;;;;;5093482;28;1968;-81
2022/01/22 09:34:20;;;;;;;;;;;;;;;;;;5093831;28;903;-81
2022/01/22 09:36:46;;;;;;;;;;;;;;;;;;5074286;28;1128;-81
2022/01/22 09:39:11;;;;;;;;;;;;;;;;;;5093321;28;884;-81
2022/01/22 09:41:36;;;;;;;;;;;;;;;;;;5075201;28;900;-82
2022/01/22 09:44:02;;;;;;;;;;;;;;;;;;5093755;28;824;-82
2022/01/22 09:46:28;;;;;;;;;;;;;;;;;;5074607;28;1284;-82
2022/01/22 09:48:54;;;;;;;;;;;;;;;;;;5057588;28;1274;-82
2022/01/22 09:51:20;;;;;;;;;;;;;;;;;;5092432;28;1003;-81
2022/01/22 09:53:45;;;;;;;;;;;;;;;;;;5092497;28;1906;-82
2022/01/22 09:56:11;;;;;;;;;;;;;;;;;;5093372;28;735;-82
2022/01/22 09:58:36;;;;;;;;;;;;;;;;;;5092533;28;920;-82
2022/01/22 10:01:21;;;;;;;;;;;;;;;;;;5074984;28;964;-82
2022/01/22 10:03:46;;;;;;;;;;;;;;;;;;5073978;28;1182;-82
2022/01/22 10:06:22;;;;;;;;;;;;;;;;;;5093763;28;928;-83
2022/01/22 10:08:48;;;;;;;;;;;;;;;;;;5093197;28;1101;-82
2022/01/22 10:11:20;;;;;;;;;;;;;;;;;;5093182;28;892;-82
2022/01/22 10:13:50;;;;;;;;;;;;;;;;;;5092346;28;1953;-81
2022/01/22 10:16:20;;;;;;;;;;;;;;;;;;5091471;28;928;-80
2022/01/22 10:19:06;;;;;;;;;;;;;;;;;;5092028;28;903;-81
2022/01/22 10:21:31;;;;;;;;;;;;;;;;;;5076499;28;2596;-81
2022/01/22 10:24:17;;;;;;;;;;;;;;;;;;5092262;28;1262;-81
2022/01/22 10:26:42;;;;;;;;;;;;;;;;;;5091491;28;1200;-81
2022/01/22 10:29:09;;;;;;;;;;;;;;;;;;5091870;28;971;-80
2022/01/22 10:31:41;;;;;;;;;;;;;;;;;;5073834;28;1073;-81
2022/01/22 10:34:06;;;;;;;;;;;;;;;;;;5074075;28;1251;-81
2022/01/22 10:36:31;;;;;;;;;;;;;;;;;;5092335;28;873;-81
2022/01/22 10:38:57;;;;;;;;;;;;;;;;;;5092457;28;793;-81
2022/01/22 10:41:39;;;;;;;;;;;;;;;;;;5092296;28;970;-80
2022/01/22 10:44:07;;;;;;;;;;;;;;;;;;5092269;28;793;-80
2022/01/22 10:46:49;;;;;;;;;;;;;;;;;;5074066;28;1193;-81
2022/01/22 10:49:15;;;;;;;;;;;;;;;;;;5074465;28;1188;-81
2022/01/22 10:51:45;;;;;;;;;;;;;;;;;;5073903;28;1894;-81
2022/01/22 10:54:11;;;;;;;;;;;;;;;;;;5092625;28;861;-81
2022/01/22 10:56:39;;;;;;;;;;;;;;;;;;5073873;28;1382;-81
2022/01/22 10:59:11;;;;;;;;;;;;;;;;;;5057340;28;2246;-81
2022/01/22 11:01:57;;;;;;;;;;;;;;;;;;5091781;28;888;-81
2022/01/22 11:04:29;;;;;;;;;;;;;;;;;;5092092;28;970;-81
2022/01/22 11:06:59;;;;;;;;;;;;;;;;;;5073543;28;1336;-81
2022/01/22 11:09:26;;;;;;;;;;;;;;;;;;5073911;28;1437;-81
2022/01/22 11:11:52;;;;;;;;;;;;;;;;;;5092448;28;1964;-81
2022/01/22 11:14:17;;;;;;;;;;;;;;;;;;5092327;28;872;-81
2022/01/22 11:16:44;;;;;;;;;;;;;;;;;;5092052;28;850;-81
2022/01/22 11:19:10;;;;;;;;;;;;;;;;;;5092058;28;963;-81
2022/01/22 11:21:41;;;;;;;;;;;;;;;;;;5092015;28;892;-81
2022/01/22 11:24:10;;;;;;;;;;;;;;;;;;5092250;28;1211;-81
2022/01/22 11:26:39;;;;;;;;;;;;;;;;;;5092153;28;1066;-81
2022/01/22 11:29:05;;;;;;;;;;;;;;;;;;5095418;28;770;-81
2022/01/22 11:31:31;;;;;;;;;;;;;;;;;;5095566;28;1667;-75
2022/01/22 11:33:59;;;;;;;;;;;;;;;;;;5077053;28;1910;-75
2022/01/22 11:36:31;;;;;;;;;;;;;;;;;;5094740;28;975;-75
2022/01/22 11:38:57;;;;;;;;;;;;;;;;;;5075742;28;1190;-75
2022/01/22 11:41:24;;;;;;;;;;;;;;;;;;5094580;28;907;-75
2022/01/22 11:44:08;;;;;;;;;;;;;;;;;;5075591;28;1485;-73
2022/01/22 11:46:36;;;;;;;;;;;;;;;;;;5094873;28;766;-73
2022/01/22 11:49:07;;;;;;;;;;;;;;;;;;5094099;28;880;-74
2022/01/22 11:51:32;;;;;;;;;;;;;;;;;;5094429;28;1010;-74
2022/01/22 11:53:59;;;;;;;;;;;;;;;;;;5075907;28;1905;-74
2022/01/22 11:56:28;;;;;;;;;;;;;;;;;;5094717;28;873;-74
2022/01/22 11:58:56;;;;;;;;;;;;;;;;;;5094562;28;812;-74
2022/01/22 12:01:52;;;;;;;;;;;;;;;;;;5094787;28;754;-74
2022/01/22 12:04:21;;;;;;;;;;;;;;;;;;5088542;28;1262;-73
2022/01/22 12:07:01;;;;;;;;;;;;;;;;;;5093401;28;844;-74
2022/01/22 12:09:32;;;;;;;;;;;;;;;;;;5094006;28;889;-73
2022/01/22 12:14:49;;;;;;;;;;;;;;;;;;5093964;28;627;-73
2022/01/22 12:17:25;;;;;;;;;;;;;;;;;;5094020;28;885;-73
2022/01/22 12:20:05;;;;;;;;;;;;;;;;;;5093851;28;911;-73
2022/01/22 12:22:39;;;;;;;;;;;;;;;;;;5094007;28;1029;-73
2022/01/22 12:25:07;;;;;;;;;;;;;;;;;;5093291;28;1065;-73
2022/01/22 12:27:44;;;;;;;;;;;;;;;;;;5093588;28;979;-73
2022/01/22 12:30:10;;;;;;;;;;;;;;;;;;5093746;28;892;-72
2022/01/22 12:32:48;;;;;;;;;;;;;;;;;;5093477;28;1967;-73
2022/01/22 12:35:17;;;;;;;;;;;;;;;;;;5093392;28;750;-73
2022/01/22 12:37:46;;;;;;;;;;;;;;;;;;5092991;28;820;-73
2022/01/22 12:40:12;;;;;;;;;;;;;;;;;;5095639;28;828;-72
2022/01/22 12:42:52;;;;;;;;;;;;;;;;;;5095969;28;849;-73
2022/01/22 12:45:18;;;;;;;;;;;;;;;;;;5095960;28;918;-73
2022/01/22 12:47:47;;;;;;;;;;;;;;;;;;5096249;28;813;-73
2022/01/22 12:50:13;;;;;;;;;;;;;;;;;;5095787;28;842;-72
2022/01/22 12:52:41;;;;;;;;;;;;;;;;;;5095229;28;1901;-73
2022/01/22 12:55:17;;;;;;;;;;;;;;;;;;5095857;28;897;-73
2022/01/22 12:57:42;;;;;;;;;;;;;;;;;;5094435;28;1115;-73
2022/01/22 13:00:10;;;;;;;;;;;;;;;;;;5105428;28;816;-74
2022/01/22 13:02:39;;;;;;;;;;;;;;;;;;5107308;28;829;-73
2022/01/22 13:05:05;;;;;;;;;;;;;;;;;;5097718;28;971;-72
2022/01/22 13:07:41;;;;;;;;;;;;;;;;;;5095193;28;1057;-72
2022/01/22 13:10:08;;;;;;;;;;;;;;;;;;5094821;28;861;-73
2022/01/22 13:12:34;;;;;;;;;;;;;;;;;;5076359;28;1902;-73
2022/01/22 13:15:00;;;;;;;;;;;;;;;;;;5095554;28;1226;-72
2022/01/22 13:17:29;;;;;;;;;;;;;;;;;;5095405;28;785;-73
2022/01/22 13:19:55;;;;;;;;;;;;;;;;;;5094481;28;785;-73
2022/01/22 13:22:29;;;;;;;;;;;;;;;;;;5074695;28;1152;-73
2022/01/22 13:25:02;;;;;;;;;;;;;;;;;;5092070;28;1057;-72
2022/01/22 13:27:27;;;;;;;;;;;;;;;;;;5092256;28;964;-72
2022/01/22 13:29:56;;;;;;;;;;;;;;;;;;5092035;28;868;-73
2022/01/22 13:49:09;;;;;;;;;;;;;;;;;;5080484;28;1015;-79
2022/01/22 13:51:34;;;;;;;;;;;;;;;;;;5093093;28;1054;-79
2022/01/22 13:54:00;;;;;;;;;;;;;;;;;;5093038;28;1964;-79
2022/01/22 13:56:49;;;;;;;;;;;;;;;;;;5092547;28;927;-80
2022/01/22 13:59:24;;;;;;;;;;;;;;;;;;5090752;28;876;-80
2022/01/22 14:02:13;;;;;;;;;;;;;;;;;;5091798;28;890;-79
2022/01/22 14:04:45;;;;;;;;;;;;;;;;;;5093054;28;844;-79
2022/01/22 14:07:14;;;;;;;;;;;;;;;;;;5093157;28;837;-80
2022/01/22 14:09:49;;;;;;;;;;;;;;;;;;5075006;28;1432;-79
2022/01/22 14:12:15;;;;;;;;;;;;;;;;;;5092841;28;1905;-79
2022/01/22 14:14:57;;;;;;;;;;;;;;;;;;5092084;28;1930;-80
2022/01/22 14:17:26;;;;;;;;;;;;;;;;;;5090738;28;1984;-81
2022/01/22 14:20:06;;;;;;;;;;;;;;;;;;5091183;28;1156;-82
2022/01/22 14:22:50;;;;;;;;;;;;;;;;;;5091210;28;1216;-81
2022/01/22 14:25:16;;;;;;;;;;;;;;;;;;5093204;28;1144;-82
2022/01/22 14:27:41;;;;;;;;;;;;;;;;;;5093364;28;923;-82
2022/01/22 14:30:06;;;;;;;;;;;;;;;;;;5093883;28;849;-82
2022/01/22 14:32:32;;;;;;;;;;;;;;;;;;5075104;28;1955;-82
2022/01/22 14:34:59;;;;;;;;;;;;;;;;;;5093311;28;817;-82
2022/01/22 14:37:27;;;;;;;;;;;;;;;;;;5074898;28;1182;-82
2022/01/22 14:45:20;;;;;;;;;;;;;;;;;;5092496;28;834;-81
2022/01/22 14:47:51;;;;;;;;;;;;;;;;;;5092438;28;856;-81
2022/01/22 14:50:16;;;;;;;;;;;;;;;;;;5074642;28;817;-80
2022/01/22 14:52:42;;;;;;;;;;;;;;;;;;5091957;28;1905;-73
2022/01/22 14:55:08;;;;;;;;;;;;;;;;;;5091922;28;896;-80
2022/01/22 14:57:36;;;;;;;;;;;;;;;;;;5092185;28;871;-80
2022/01/22 15:00:06;;;;;;;;;;;;;;;;;;5092414;28;912;-80
2022/01/22 15:02:32;;;;;;;;;;;;;;;;;;5075349;28;1336;-80
2022/01/22 15:04:57;;;;;;;;;;;;;;;;;;5095872;28;852;-80
2022/01/22 15:07:23;;;;;;;;;;;;;;;;;;5095469;28;833;-78
2022/01/22 15:09:50;;;;;;;;;;;;;;;;;;5077561;28;904;-80
2022/01/22 15:12:16;;;;;;;;;;;;;;;;;;5095176;28;1949;-79
2022/01/22 15:14:42;;;;;;;;;;;;;;;;;;5096028;28;1069;-79
2022/01/22 15:19:37;;;;;;;;;;;;;;;;;;5095554;28;1018;-78
2022/01/22 15:22:03;;;;;;;;;;;;;;;;;;5094316;28;895;-73
2022/01/22 15:24:28;;;;;;;;;;;;;;;;;;5075868;28;1177;-73
2022/01/22 15:26:54;;;;;;;;;;;;;;;;;;5075656;28;1310;-73
2022/01/22 15:29:28;;;;;;;;;;;;;;;;;;5094280;28;963;-73
2022/01/22 15:36:54;;;;;;;;;;;;;;;;;;5095040;28;828;-79
2022/01/22 15:39:20;;;;;;;;;;;;;;;;;;5094674;28;959;-82
2022/01/22 15:41:46;;;;;;;;;;;;;;;;;;5076171;28;877;-79
2022/01/22 15:44:12;;;;;;;;;;;;;;;;;;5094453;28;903;-80
2022/01/22 15:46:41;;;;;;;;;;;;;;;;;;5094998;28;916;-81
2022/01/22 15:49:07;;;;;;;;;;;;;;;;;;5095007;28;853;-81
2022/01/22 15:51:32;;;;;;;;;;;;;;;;;;5095230;28;893;-80
2022/01/22 15:53:58;;;;;;;;;;;;;;;;;;5093776;28;1965;-79
2022/01/22 15:56:24;;;;;;;;;;;;;;;;;;5095728;28;939;-82
2022/01/22 15:58:49;;;;;;;;;;;;;;;;;;5060336;28;1263;-79
2022/01/22 16:01:15;;;;;;;;;;;;;;;;;;5094636;28;1249;-79
2022/01/22 16:03:44;;;;;;;;;;;;;;;;;;5076446;28;860;-79
2022/01/22 16:06:18;;;;;;;;;;;;;;;;;;5094924;28;891;-80
2022/01/22 16:08:44;;;;;;;;;;;;;;;;;;5094998;28;923;-79
2022/01/22 16:11:11;;;;;;;;;;;;;;;;;;5077359;28;750;-81
2022/01/22 16:13:36;;;;;;;;;;;;;;;;;;5076920;28;1879;-80
2022/01/22 16:16:03;;;;;;;;;;;;;;;;;;5094371;28;896;-79
2022/01/22 16:18:28;;;;;;;;;;;;;;;;;;5095051;28;829;-80
2022/01/22 16:20:55;;;;;;;;;;;;;;;;;;5094369;28;947;-79
2022/01/22 16:23:21;;;;;;;;;;;;;;;;;;5094747;28;1019;-79
2022/01/22 16:25:46;;;;;;;;;;;;;;;;;;5094048;28;1060;-80
2022/01/22 16:28:12;;;;;;;;;;;;;;;;;;5075904;28;845;-79
2022/01/22 16:30:37;;;;;;;;;;;;;;;;;;5093041;28;940;-79
2022/01/22 16:33:03;;;;;;;;;;;;;;;;;;5094115;28;1909;-79
2022/01/22 16:35:28;;;;;;;;;;;;;;;;;;5093842;28;971;-79
2022/01/22 16:37:54;;;;;;;;;;;;;;;;;;5093826;28;825;-79
2022/01/22 16:40:24;;;;;;;;;;;;;;;;;;5075327;28;2603;-79
2022/01/22 16:42:59;;;;;;;;;;;;;;;;;;5094999;28;899;-79
2022/01/22 16:56:22;;;;;;;;;;;;;;;;;;5078555;28;658;-78
2022/01/22 16:58:50;;;;;;;;;;;;;;;;;;5075643;28;1081;-79
2022/01/22 17:01:25;;;;;;;;;;;;;;;;;;5094055;28;891;-78
2022/01/22 17:03:52;;;;;;;;;;;;;;;;;;5094155;28;789;-79
2022/01/22 17:06:18;;;;;;;;;;;;;;;;;;5093791;28;845;-79
2022/01/22 17:08:46;;;;;;;;;;;;;;;;;;5093502;28;830;-78
2022/01/22 17:11:19;;;;;;;;;;;;;;;;;;5093877;28;832;-79
2022/01/22 17:16:28;;;;;;;;;;;;;;;;;;5093415;28;771;-79
2022/01/22 17:18:54;;;;;;;;;;;;;;;;;;5093139;28;841;-79
2022/01/22 17:21:19;;;;;;;;;;;;;;;;;;5074797;28;1138;-79
2022/01/22 17:23:46;;;;;;;;;;;;;;;;;;5093346;28;971;-79
2022/01/22 17:26:12;;;;;;;;;;;;;;;;;;5074328;28;1415;-79
2022/01/22 17:28:37;;;;;;;;;;;;;;;;;;5093525;28;948;-73
2022/01/22 17:31:02;;;;;;;;;;;;;;;;;;5074515;28;1352;-73
2022/01/22 17:33:27;;;;;;;;;;;;;;;;;;5092442;28;1931;-72
2022/01/22 17:35:54;;;;;;;;;;;;;;;;;;5092416;28;1003;-72
2022/01/22 17:38:19;;;;;;;;;;;;;;;;;;5074795;28;822;-72
2022/01/22 17:40:46;;;;;;;;;;;;;;;;;;5092482;28;991;-73
2022/01/22 17:43:12;;;;;;;;;;;;;;;;;;5091794;28;832;-73
2022/01/22 17:45:38;;;;;;;;;;;;;;;;;;5092143;28;929;-73
2022/01/22 17:48:03;;;;;;;;;;;;;;;;;;5092364;28;844;-75
2022/01/22 17:50:28;;;;;;;;;;;;;;;;;;5091292;28;1147;-75
2022/01/22 17:52:54;;;;;;;;;;;;;;;;;;5091653;28;1897;-74
2022/01/22 17:55:19;;;;;;;;;;;;;;;;;;5092147;28;895;-74
2022/01/22 17:57:44;;;;;;;;;;;;;;;;;;5091443;28;832;-74
2022/01/22 18:00:10;;;;;;;;;;;;;;;;;;5092182;28;1046;-75
2022/01/22 18:02:35;;;;;;;;;;;;;;;;;;5091623;28;895;-74
2022/01/22 18:05:00;;;;;;;;;;;;;;;;;;5091904;28;868;-75
2022/01/22 18:07:26;;;;;;;;;;;;;;;;;;5091854;28;907;-74
2022/01/22 18:09:54;;;;;;;;;;;;;;;;;;5091438;28;1025;-73
2022/01/22 18:12:19;;;;;;;;;;;;;;;;;;5092059;28;1902;-74
2022/01/22 18:14:45;;;;;;;;;;;;;;;;;;5091786;28;868;-73
2022/01/22 18:17:10;;;;;;;;;;;;;;;;;;5092222;28;841;-74
2022/01/22 18:19:35;;;;;;;;;;;;;;;;;;5091898;28;810;-74
2022/01/22 18:22:00;;;;;;;;;;;;;;;;;;5073403;28;856;-74
2022/01/22 18:24:26;;;;;;;;;;;;;;;;;;5091365;28;1141;-74
2022/01/22 18:26:51;;;;;;;;;;;;;;;;;;5090412;28;1370;-74
2022/01/22 18:29:20;;;;;;;;;;;;;;;;;;5092457;28;872;-75
2022/01/22 18:31:45;;;;;;;;;;;;;;;;;;5092204;28;922;-74
2022/01/22 18:34:11;;;;;;;;;;;;;;;;;;5092215;28;1968;-82
2022/01/22 18:36:37;;;;;;;;;;;;;;;;;;5093871;28;876;-81
2022/01/22 18:39:04;;;;;;;;;;;;;;;;;;5096577;28;1637;-81
2022/01/22 18:41:30;;;;;;;;;;;;;;;;;;5096764;28;872;-82
2022/01/22 18:43:55;;;;;;;;;;;;;;;;;;5078957;28;770;-81
2022/01/22 18:46:21;;;;;;;;;;;;;;;;;;5097038;28;1013;-82
2022/01/22 18:48:46;;;;;;;;;;;;;;;;;;5096840;28;828;-83
2022/01/22 18:51:12;;;;;;;;;;;;;;;;;;5078344;28;1085;-85
2022/01/22 18:53:37;;;;;;;;;;;;;;;;;;5097140;28;1963;-82
2022/01/22 18:56:03;;;;;;;;;;;;;;;;;;5096282;28;1052;-82
2022/01/22 18:58:30;;;;;;;;;;;;;;;;;;5078179;28;908;-83
2022/01/22 19:00:59;;;;;;;;;;;;;;;;;;5095718;28;853;-83
2022/01/22 19:03:24;;;;;;;;;;;;;;;;;;5096431;28;877;-83
2022/01/22 19:05:50;;;;;;;;;;;;;;;;;;5095969;28;991;-81
2022/01/22 19:08:15;;;;;;;;;;;;;;;;;;5078239;28;833;-82
2022/01/22 19:10:40;;;;;;;;;;;;;;;;;;5096151;28;887;-84
2022/01/22 19:13:05;;;;;;;;;;;;;;;;;;5077340;28;1954;-83
2022/01/22 19:15:31;;;;;;;;;;;;;;;;;;5076820;28;876;-74
2022/01/22 19:17:56;;;;;;;;;;;;;;;;;;5074613;28;2652;-76
2022/01/22 19:20:21;;;;;;;;;;;;;;;;;;5063486;28;3020;-76
2022/01/22 19:30:28;;;;;;;;;;;;;;;;;;5076000;28;682;-82